createdAt,value
2017-12-13T00:02:14.475Z,693.30
2017-12-13T00:04:42.438Z,561.10
2017-12-13T00:07:09.995Z,537.20
2017-12-13T00:09:37.568Z,532.53
2017-12-13T00:12:05.382Z,554.75
2017-12-13T00:14:32.918Z,481.58
2017-12-13T00:17:00.503Z,538.33
2017-12-13T00:19:28.029Z,650.65
2017-12-13T00:21:55.675Z,618.83
2017-12-13T00:24:23.465Z,651.17
2017-12-13T00:26:51.016Z,650.33
2017-12-13T00:29:18.789Z,710.70
2017-12-13T00:31:46.363Z,709.55
2017-12-13T00:34:13.907Z,732.47
2017-12-13T00:36:41.474Z,749.50
2017-12-13T00:39:09.031Z,685.28
2017-12-13T00:41:36.624Z,704.90
2017-12-13T00:44:04.164Z,742.15
2017-12-13T00:46:31.736Z,770.97
2017-12-13T00:48:59.256Z,715.30
2017-12-13T00:51:26.811Z,752.42
2017-12-13T00:53:54.365Z,712.35
2017-12-13T00:56:21.934Z,643.92
2017-12-13T00:58:49.496Z,527.90
2017-12-13T01:01:17.059Z,484.27
2017-12-13T01:03:44.650Z,403.45
2017-12-13T01:06:12.296Z,466.23
2017-12-13T01:08:39.855Z,515.42
2017-12-13T01:11:07.404Z,214.85
2017-12-13T01:13:34.919Z,198.20
2017-12-13T01:16:02.470Z,226.20
2017-12-13T01:18:30.283Z,327.20
2017-12-13T01:20:57.824Z,269.35
2017-12-13T01:23:25.666Z,171.77
2017-12-13T01:25:53.185Z,258.17
2017-12-13T01:28:20.736Z,254.15
2017-12-13T01:30:48.325Z,141.73
2017-12-13T01:33:15.876Z,171.73
2017-12-13T01:35:55.612Z,176.68
2017-12-13T01:38:23.150Z,131.60
2017-12-13T01:40:50.995Z,105.87
2017-12-13T01:43:18.561Z,297.65
2017-12-13T01:45:46.130Z,275.52
2017-12-13T01:48:13.658Z,197.73
2017-12-13T01:50:41.210Z,201.75
2017-12-13T01:53:08.774Z,224.95
2017-12-13T01:55:36.338Z,302.50
2017-12-13T01:58:03.971Z,301.55
2017-12-13T02:00:31.561Z,304.80
2017-12-13T02:02:59.107Z,261.25
2017-12-13T02:05:26.701Z,209.85
2017-12-13T02:07:54.263Z,145.27
2017-12-13T02:10:21.793Z,205.25
2017-12-13T02:12:49.380Z,111.78
2017-12-13T02:15:16.947Z,191.23
2017-12-13T02:17:44.502Z,202.80
2017-12-13T02:20:12.038Z,242.32
2017-12-13T02:22:39.607Z,197.10
2017-12-13T02:25:07.198Z,103.72
2017-12-13T02:27:34.742Z,70.90
2017-12-13T02:30:02.316Z,70.93
2017-12-13T02:32:29.928Z,79.75
2017-12-13T02:34:57.453Z,85.12
2017-12-13T02:37:24.978Z,77.50
2017-12-13T02:40:04.448Z,64.62
2017-12-13T02:42:31.985Z,66.53
2017-12-13T02:44:59.527Z,59.95
2017-12-13T02:47:27.078Z,70.82
2017-12-13T02:49:54.832Z,54.33
2017-12-13T02:52:22.590Z,65.37
2017-12-13T02:54:50.456Z,58.53
2017-12-13T02:57:18.023Z,70.20
2017-12-13T02:59:45.579Z,87.45
2017-12-13T03:02:13.173Z,69.72
2017-12-13T03:04:40.720Z,53.15
2017-12-13T03:07:08.268Z,68.05
2017-12-13T03:09:35.876Z,57.35
2017-12-13T03:12:03.647Z,63.15
2017-12-13T03:14:31.224Z,65.40
2017-12-13T03:16:58.811Z,81.03
2017-12-13T03:19:26.366Z,105.72
2017-12-13T03:21:53.911Z,159.87
2017-12-13T03:24:21.480Z,156.65
2017-12-13T03:26:49.028Z,211.70
2017-12-13T03:29:16.583Z,211.70
2017-12-13T03:31:44.168Z,239.63
2017-12-13T03:34:11.712Z,256.80
2017-12-13T03:36:39.562Z,265.12
2017-12-13T03:39:07.151Z,248.13
2017-12-13T03:41:34.706Z,244.93
2017-12-13T03:44:02.277Z,257.58
2017-12-13T03:46:29.860Z,274.67
2017-12-13T03:48:57.408Z,240.87
2017-12-13T03:51:24.957Z,69.25
2017-12-13T03:53:52.527Z,89.10
2017-12-13T03:56:20.055Z,144.20
2017-12-13T03:58:47.809Z,154.73
2017-12-13T04:01:15.401Z,249.25
2017-12-13T04:03:42.950Z,236.23
2017-12-13T04:06:10.526Z,245.18
2017-12-13T04:08:38.094Z,185.65
2017-12-13T04:11:05.661Z,193.70
2017-12-13T04:13:33.199Z,208.13
2017-12-13T04:16:00.746Z,232.87
2017-12-13T04:18:28.284Z,235.57
2017-12-13T04:20:56.056Z,255.02
2017-12-13T04:23:23.637Z,265.52
2017-12-13T04:25:51.226Z,343.60
2017-12-13T04:28:18.974Z,224.10
2017-12-13T04:30:46.706Z,261.48
2017-12-13T04:33:14.454Z,260.65
2017-12-13T04:35:41.991Z,302.20
2017-12-13T04:38:09.565Z,313.10
2017-12-13T04:40:37.121Z,291.20
2017-12-13T04:43:04.669Z,271.60
2017-12-13T04:45:32.249Z,307.52
2017-12-13T04:47:59.833Z,270.55
2017-12-13T04:50:27.373Z,291.70
2017-12-13T04:52:54.940Z,175.98
2017-12-13T04:55:22.492Z,151.15
2017-12-13T04:57:50.047Z,232.80
2017-12-13T05:00:17.637Z,237.75
2017-12-13T05:02:45.174Z,218.52
2017-12-13T05:05:12.713Z,248.55
2017-12-13T05:07:40.280Z,190.20
2017-12-13T05:10:07.846Z,120.70
2017-12-13T05:12:35.382Z,150.57
2017-12-13T05:15:02.942Z,80.43
2017-12-13T05:17:30.498Z,131.18
2017-12-13T05:19:58.027Z,74.93
2017-12-13T05:22:25.934Z,89.93
2017-12-13T05:24:53.775Z,124.38
2017-12-13T05:27:21.293Z,73.28
2017-12-13T05:29:49.454Z,106.80
2017-12-13T05:32:17.006Z,132.32
2017-12-13T05:34:44.697Z,131.98
2017-12-13T05:37:12.227Z,147.13
2017-12-13T05:39:39.810Z,150.82
2017-12-13T05:42:07.387Z,141.95
2017-12-13T05:44:34.939Z,146.70
2017-12-13T05:47:02.591Z,144.43
2017-12-13T05:49:30.187Z,138.62
2017-12-13T05:51:57.735Z,134.00
2017-12-13T05:54:25.321Z,150.40
2017-12-13T05:56:52.908Z,125.82
2017-12-13T05:59:20.500Z,134.63
2017-12-13T06:01:48.194Z,123.50
2017-12-13T06:04:15.733Z,150.02
2017-12-13T06:06:43.285Z,107.72
2017-12-13T06:09:10.937Z,103.07
2017-12-13T06:11:38.492Z,85.75
2017-12-13T06:14:06.026Z,104.80
2017-12-13T06:16:33.587Z,111.32
2017-12-13T06:19:01.172Z,111.20
2017-12-13T06:21:28.750Z,103.20
2017-12-13T06:23:56.463Z,94.05
2017-12-13T06:26:23.999Z,83.37
2017-12-13T06:28:51.736Z,83.20
2017-12-13T06:31:19.313Z,91.70
2017-12-13T06:33:46.867Z,79.05
2017-12-13T06:36:14.405Z,92.10
2017-12-13T06:38:42.000Z,88.25
2017-12-13T06:41:09.542Z,93.78
2017-12-13T06:43:38.748Z,107.57
2017-12-13T06:46:06.447Z,122.22
2017-12-13T06:48:34.067Z,82.18
2017-12-13T06:51:01.616Z,78.50
2017-12-13T06:53:29.163Z,86.13
2017-12-13T06:55:56.718Z,100.80
2017-12-13T06:58:24.285Z,112.30
2017-12-13T07:00:51.879Z,133.83
2017-12-13T07:03:19.443Z,132.23
2017-12-13T07:05:46.976Z,140.03
2017-12-13T07:08:14.552Z,127.77
2017-12-13T07:10:42.100Z,120.13
2017-12-13T07:13:09.652Z,122.70
2017-12-13T07:15:37.243Z,111.10
2017-12-13T07:18:04.778Z,94.27
2017-12-13T07:20:32.354Z,114.30
2017-12-13T07:22:59.913Z,121.20
2017-12-13T07:25:27.446Z,117.40
2017-12-13T07:27:55.082Z,114.60
2017-12-13T07:30:22.802Z,127.23
2017-12-13T07:32:50.392Z,127.83
2017-12-13T07:35:17.926Z,121.27
2017-12-13T07:37:45.501Z,121.00
2017-12-13T07:40:13.040Z,119.97
2017-12-13T07:42:40.663Z,94.80
2017-12-13T07:45:08.236Z,80.90
2017-12-13T07:47:35.778Z,82.17
2017-12-13T07:50:03.535Z,69.77
2017-12-13T07:52:31.749Z,81.13
2017-12-13T07:54:59.342Z,81.87
2017-12-13T07:57:26.922Z,104.53
2017-12-13T07:59:54.532Z,96.60
2017-12-13T08:02:22.204Z,96.73
2017-12-13T08:04:49.759Z,91.17
2017-12-13T08:07:17.579Z,88.33
2017-12-13T08:09:45.114Z,89.43
2017-12-13T08:12:12.680Z,84.03
2017-12-13T08:14:40.220Z,78.87
2017-12-13T08:17:07.842Z,83.77
2017-12-13T08:19:35.416Z,84.70
2017-12-13T08:22:03.003Z,101.43
2017-12-13T08:24:30.559Z,112.00
2017-12-13T08:26:58.356Z,120.17
2017-12-13T08:29:25.910Z,140.93
2017-12-13T08:31:53.453Z,133.67
2017-12-13T08:34:21.014Z,136.30
2017-12-13T08:36:48.586Z,129.13
2017-12-13T08:39:16.175Z,132.43
2017-12-13T08:41:43.778Z,120.23
2017-12-13T08:44:11.555Z,122.17
2017-12-13T08:46:39.132Z,125.50
2017-12-13T08:49:06.757Z,132.73
2017-12-13T08:51:34.317Z,151.50
2017-12-13T08:54:01.930Z,168.37
2017-12-13T08:56:29.507Z,196.27
2017-12-13T08:58:57.060Z,241.60
2017-12-13T09:01:24.690Z,291.87
2017-12-13T09:03:52.488Z,296.90
2017-12-13T09:06:20.061Z,299.23
2017-12-13T09:08:47.666Z,286.53
2017-12-13T09:11:15.202Z,300.10
2017-12-13T09:13:42.766Z,305.93
2017-12-13T09:16:10.322Z,306.13
2017-12-13T09:18:37.879Z,300.77
2017-12-13T09:21:05.468Z,296.20
2017-12-13T09:23:33.078Z,275.10
2017-12-13T09:26:00.637Z,279.10
2017-12-13T09:28:28.210Z,261.70
2017-12-13T09:30:55.767Z,267.33
2017-12-13T09:33:23.332Z,236.30
2017-12-13T09:35:50.944Z,243.10
2017-12-13T09:38:18.590Z,239.00
2017-12-13T09:40:46.601Z,232.50
2017-12-13T09:43:15.012Z,244.30
2017-12-13T09:45:42.876Z,240.07
2017-12-13T09:48:10.428Z,195.63
2017-12-13T09:50:38.000Z,167.57
2017-12-13T09:53:05.572Z,132.47
2017-12-13T09:55:33.130Z,137.00
2017-12-13T09:58:00.679Z,131.20
2017-12-13T10:00:28.517Z,110.23
2017-12-13T10:02:56.137Z,103.37
2017-12-13T10:05:23.684Z,108.53
2017-12-13T10:07:51.229Z,81.30
2017-12-13T10:10:18.839Z,87.27
2017-12-13T10:12:46.414Z,85.80
2017-12-13T10:15:13.995Z,67.13
2017-12-13T10:17:41.611Z,82.90
2017-12-13T10:20:09.200Z,86.13
2017-12-13T10:22:36.758Z,82.63
2017-12-13T10:25:04.343Z,73.87
2017-12-13T10:27:31.922Z,78.80
2017-12-13T10:29:59.519Z,66.43
2017-12-13T10:32:40.999Z,67.10
2017-12-13T10:38:10.649Z,57.60
2017-12-13T10:40:38.191Z,51.70
2017-12-13T10:43:05.760Z,55.53
2017-12-13T10:45:33.343Z,50.57
2017-12-13T10:48:00.880Z,44.77
2017-12-13T10:50:28.423Z,46.33
2017-12-13T10:52:55.995Z,52.67
2017-12-13T10:55:23.543Z,46.30
2017-12-13T10:57:51.070Z,54.23
2017-12-13T11:00:18.764Z,49.53
2017-12-13T11:02:46.322Z,49.63
2017-12-13T11:05:13.878Z,45.93
2017-12-13T11:07:41.452Z,49.20
2017-12-13T11:10:09.021Z,49.83
2017-12-13T11:12:36.685Z,43.23
2017-12-13T11:15:04.247Z,45.43
2017-12-13T11:17:31.851Z,42.23
2017-12-13T11:19:59.511Z,55.03
2017-12-13T11:22:27.095Z,55.17
2017-12-13T11:24:54.626Z,59.20
2017-12-13T11:27:23.152Z,76.90
2017-12-13T11:29:50.725Z,70.37
2017-12-13T11:32:18.319Z,74.50
2017-12-13T11:34:46.125Z,73.40
2017-12-13T11:37:16.579Z,72.47
2017-12-13T11:39:44.150Z,66.67
2017-12-13T11:42:11.714Z,60.17
2017-12-13T11:44:39.241Z,60.43
2017-12-13T11:47:06.921Z,58.03
2017-12-13T11:49:34.491Z,55.53
2017-12-13T11:52:02.076Z,58.10
2017-12-13T11:54:35.166Z,63.80
2017-12-13T11:57:02.720Z,62.87
2017-12-13T11:59:30.234Z,60.30
2017-12-13T12:01:57.794Z,69.80
2017-12-13T12:04:25.389Z,74.13
2017-12-13T12:06:52.952Z,91.03
2017-12-13T12:09:20.567Z,107.63
2017-12-13T12:11:48.104Z,103.90
2017-12-13T12:14:15.706Z,99.43
2017-12-13T12:16:43.341Z,85.17
2017-12-13T12:19:10.882Z,77.70
2017-12-13T12:21:38.405Z,85.40
2017-12-13T12:24:06.009Z,82.97
2017-12-13T12:26:33.654Z,77.37
2017-12-13T12:29:01.299Z,79.10
2017-12-13T12:31:28.933Z,93.50
2017-12-13T12:33:56.476Z,82.57
2017-12-13T12:36:24.015Z,79.80
2017-12-13T12:38:51.593Z,75.80
2017-12-13T12:41:19.106Z,75.10
2017-12-13T12:43:46.673Z,92.20
2017-12-13T12:46:14.965Z,95.63
2017-12-13T12:48:42.506Z,101.20
2017-12-13T12:51:10.053Z,118.47
2017-12-13T12:53:37.652Z,112.57
2017-12-13T12:56:05.241Z,130.23
2017-12-13T12:58:32.817Z,133.63
2017-12-13T13:01:00.385Z,141.93
2017-12-13T13:03:27.948Z,147.67
2017-12-13T13:05:55.531Z,140.80
2017-12-13T13:08:23.285Z,106.50
2017-12-13T13:10:50.890Z,104.27
2017-12-13T13:13:18.436Z,96.27
2017-12-13T13:15:46.099Z,101.50
2017-12-13T13:18:13.652Z,90.30
2017-12-13T13:20:41.245Z,89.67
2017-12-13T13:23:08.822Z,92.77
2017-12-13T13:25:36.501Z,89.43
2017-12-13T13:28:04.109Z,96.70
2017-12-13T13:30:31.685Z,92.43
2017-12-13T13:32:59.231Z,94.23
2017-12-13T13:35:26.820Z,114.23
2017-12-13T13:37:54.384Z,115.63
2017-12-13T13:40:21.948Z,113.50
2017-12-13T13:42:50.278Z,115.50
2017-12-13T13:45:17.828Z,127.60
2017-12-13T13:47:45.693Z,114.43
2017-12-13T13:50:13.227Z,120.03
2017-12-13T13:52:40.800Z,122.87
2017-12-13T13:55:08.357Z,125.33
2017-12-13T13:57:35.878Z,122.70
2017-12-13T14:00:10.484Z,134.80
2017-12-13T14:02:38.050Z,123.97
2017-12-13T14:05:05.597Z,107.97
2017-12-13T14:07:33.181Z,109.90
2017-12-13T14:10:00.721Z,114.67
2017-12-13T14:12:28.285Z,128.90
2017-12-13T14:14:55.844Z,123.73
2017-12-13T14:17:23.399Z,130.00
2017-12-13T14:19:50.943Z,122.40
2017-12-13T14:22:18.522Z,118.63
2017-12-13T14:24:46.077Z,130.20
2017-12-13T14:27:13.649Z,110.57
2017-12-13T14:29:41.213Z,122.57
2017-12-13T14:32:08.784Z,129.27
2017-12-13T14:34:36.427Z,142.03
2017-12-13T14:37:04.255Z,120.20
2017-12-13T14:39:31.835Z,154.13
2017-12-13T14:41:59.380Z,184.50
2017-12-13T14:44:26.992Z,183.27
2017-12-13T14:46:54.671Z,296.67
2017-12-13T14:49:22.235Z,278.37
2017-12-13T14:51:49.806Z,215.93
2017-12-13T14:54:17.484Z,218.47
2017-12-13T14:56:45.033Z,201.50
2017-12-13T14:59:12.640Z,192.30
2017-12-13T15:01:40.266Z,198.30
2017-12-13T15:04:07.790Z,198.97
2017-12-13T15:06:35.880Z,198.57
2017-12-13T15:09:03.570Z,218.23
2017-12-13T15:11:31.180Z,236.70
2017-12-13T15:13:59.049Z,274.77
2017-12-13T15:16:26.615Z,323.17
2017-12-13T15:18:54.193Z,327.23
2017-12-13T15:21:21.770Z,321.10
2017-12-13T15:23:49.446Z,327.70
2017-12-13T15:26:17.188Z,329.57
2017-12-13T15:28:44.882Z,341.90
2017-12-13T15:31:12.709Z,377.07
2017-12-13T15:33:40.401Z,436.27
2017-12-13T15:36:08.072Z,456.47
2017-12-13T15:38:35.644Z,430.03
2017-12-13T15:41:03.342Z,394.27
2017-12-13T15:43:30.896Z,352.80
2017-12-13T15:45:58.484Z,438.67
2017-12-13T15:48:26.047Z,339.13
2017-12-13T15:50:53.639Z,377.13
2017-12-13T15:53:21.225Z,395.60
2017-12-13T15:55:48.804Z,372.17
2017-12-13T15:58:16.334Z,367.20
2017-12-13T16:00:43.890Z,397.47
2017-12-13T16:03:11.458Z,387.83
2017-12-13T16:05:39.018Z,421.77
2017-12-13T16:08:06.624Z,439.87
2017-12-13T16:10:34.181Z,434.63
2017-12-13T16:13:01.742Z,411.97
2017-12-13T16:15:29.324Z,352.07
2017-12-13T16:17:56.897Z,339.10
2017-12-13T16:20:24.449Z,345.27
2017-12-13T16:22:51.998Z,336.27
2017-12-13T16:25:19.538Z,352.50
2017-12-13T16:27:47.258Z,361.37
2017-12-13T16:30:15.887Z,372.33
2017-12-13T16:32:43.507Z,313.43
2017-12-13T16:35:11.150Z,349.00
2017-12-13T16:37:38.790Z,329.83
2017-12-13T16:40:06.364Z,333.60
2017-12-13T16:42:33.981Z,266.53
2017-12-13T16:45:02.355Z,279.07
2017-12-13T16:47:30.066Z,283.23
2017-12-13T16:49:57.680Z,343.30
2017-12-13T16:52:25.229Z,333.43
2017-12-13T16:54:52.775Z,351.47
2017-12-13T16:57:20.306Z,347.93
2017-12-13T16:59:48.054Z,384.03
2017-12-13T17:02:14.986Z,374.77
2017-12-13T17:04:42.546Z,357.17
2017-12-13T17:07:10.189Z,227.20
2017-12-13T17:09:37.768Z,296.17
2017-12-13T17:12:05.317Z,407.33
2017-12-13T17:14:32.854Z,424.23
2017-12-13T17:17:00.558Z,412.07
2017-12-13T17:19:28.142Z,409.60
2017-12-13T17:21:55.732Z,428.60
2017-12-13T17:24:23.502Z,386.07
2017-12-13T17:26:51.035Z,436.33
2017-12-13T17:29:18.616Z,446.80
2017-12-13T17:31:46.195Z,426.40
2017-12-13T17:34:13.727Z,262.47
2017-12-13T17:36:41.345Z,302.70
2017-12-13T17:39:08.960Z,239.37
2017-12-13T17:41:36.537Z,376.47
2017-12-13T17:44:04.121Z,208.60
2017-12-13T17:46:31.961Z,319.30
2017-12-13T17:49:00.194Z,288.70
2017-12-13T17:51:27.750Z,289.47
2017-12-13T17:53:55.328Z,341.20
2017-12-13T17:56:22.863Z,357.20
2017-12-13T17:58:50.437Z,325.90
2017-12-13T18:01:18.018Z,208.23
2017-12-13T18:03:45.610Z,376.03
2017-12-13T18:06:13.225Z,373.30
2017-12-13T18:08:40.839Z,337.03
2017-12-13T18:11:08.426Z,349.80
2017-12-13T18:13:37.468Z,337.40
2017-12-13T18:16:05.382Z,312.33
2017-12-13T18:18:32.962Z,316.60
2017-12-13T18:21:00.532Z,329.93
2017-12-13T18:23:28.140Z,332.97
2017-12-13T18:25:56.085Z,342.97
2017-12-13T18:28:23.654Z,312.97
2017-12-13T18:30:51.257Z,316.10
2017-12-13T18:33:19.125Z,340.10
2017-12-13T18:35:46.751Z,307.87
2017-12-13T18:38:14.349Z,321.57
2017-12-13T18:40:41.966Z,293.80
2017-12-13T18:43:09.563Z,307.37
2017-12-13T18:45:37.326Z,325.10
2017-12-13T18:48:04.908Z,309.67
2017-12-13T18:50:32.601Z,344.80
2017-12-13T18:53:00.352Z,335.13
2017-12-13T18:55:28.221Z,335.47
2017-12-13T18:57:56.587Z,375.67
2017-12-13T19:00:25.376Z,320.03
2017-12-13T19:02:53.212Z,303.73
2017-12-13T19:05:20.909Z,308.43
2017-12-13T19:07:49.354Z,291.10
2017-12-13T19:10:17.130Z,288.73
2017-12-13T19:12:44.704Z,276.57
2017-12-13T19:15:12.378Z,266.27
2017-12-13T19:17:39.947Z,277.30
2017-12-13T19:20:08.099Z,283.27
2017-12-13T19:22:35.796Z,289.13
2017-12-13T19:25:03.398Z,280.83
2017-12-13T19:27:31.928Z,306.47
2017-12-13T19:29:59.756Z,294.83
2017-12-13T19:32:28.309Z,320.80
2017-12-13T19:34:56.013Z,319.37
2017-12-13T19:37:23.665Z,257.73
2017-12-13T19:39:51.297Z,248.30
2017-12-13T19:42:18.944Z,242.10
2017-12-13T19:44:46.539Z,267.93
2017-12-13T19:47:14.245Z,299.83
2017-12-13T19:49:41.849Z,245.90
2017-12-13T19:52:09.503Z,239.80
2017-12-13T19:54:37.198Z,288.77
2017-12-13T19:57:05.655Z,284.70
2017-12-13T19:59:33.829Z,296.00
2017-12-13T20:02:01.472Z,334.53
2017-12-13T20:04:29.781Z,337.67
2017-12-13T20:06:57.375Z,326.77
2017-12-13T20:09:24.978Z,310.33
2017-12-13T20:11:53.376Z,341.83
2017-12-13T20:14:22.133Z,353.73
2017-12-13T20:16:49.848Z,304.13
2017-12-13T20:19:17.664Z,265.97
2017-12-13T20:21:46.457Z,258.23
2017-12-13T20:24:14.089Z,295.23
2017-12-13T20:26:41.677Z,317.97
2017-12-13T20:29:09.292Z,307.73
2017-12-13T20:31:36.900Z,322.53
2017-12-13T20:34:04.584Z,318.63
2017-12-13T20:36:32.382Z,314.10
2017-12-13T20:39:00.115Z,312.63
2017-12-13T20:41:27.678Z,313.10
2017-12-13T20:43:55.222Z,319.10
2017-12-13T20:46:22.951Z,300.03
2017-12-13T20:48:50.538Z,296.43
2017-12-13T20:51:18.342Z,286.97
2017-12-13T20:53:45.948Z,281.83
2017-12-13T20:56:13.748Z,286.87
2017-12-13T20:58:41.316Z,300.93
2017-12-13T21:01:09.119Z,303.03
2017-12-13T21:03:36.873Z,295.50
2017-12-13T21:06:04.465Z,267.37
2017-12-13T21:08:33.095Z,247.10
2017-12-13T21:11:01.751Z,212.17
2017-12-13T21:13:29.376Z,206.20
2017-12-13T21:15:57.051Z,204.43
2017-12-13T21:18:24.682Z,256.10
2017-12-13T21:20:52.226Z,241.60
2017-12-13T21:23:20.043Z,213.03
2017-12-13T21:25:47.674Z,216.50
2017-12-13T21:28:15.261Z,223.50
2017-12-13T21:30:42.957Z,214.60
2017-12-13T21:33:10.550Z,210.17
2017-12-13T21:35:38.121Z,211.90
2017-12-13T21:38:05.693Z,221.80
2017-12-13T21:40:33.460Z,213.83
2017-12-13T21:43:01.011Z,209.50
2017-12-13T21:45:28.596Z,230.33
2017-12-13T21:47:56.135Z,211.57
2017-12-13T21:50:23.672Z,231.40
2017-12-13T21:52:51.294Z,244.67
2017-12-13T21:55:18.822Z,234.70
2017-12-13T21:57:46.635Z,216.93
2017-12-13T22:00:14.395Z,225.73
2017-12-13T22:02:42.024Z,212.50
2017-12-13T22:05:09.643Z,221.17
2017-12-13T22:07:37.457Z,230.17
2017-12-13T22:10:04.985Z,217.00
2017-12-13T22:12:32.522Z,238.73
2017-12-13T22:15:00.865Z,207.27
2017-12-13T22:17:28.601Z,209.10
2017-12-13T22:19:56.371Z,204.17
2017-12-13T22:22:24.260Z,181.60
2017-12-13T22:24:51.831Z,197.83
2017-12-13T22:27:19.377Z,186.93
2017-12-13T22:29:46.959Z,173.57
2017-12-13T22:32:14.542Z,184.37
2017-12-13T22:34:42.380Z,184.07
2017-12-13T22:37:09.936Z,165.10
2017-12-13T22:39:37.495Z,163.43
2017-12-13T22:42:05.119Z,160.67
2017-12-13T22:44:32.881Z,161.20
2017-12-13T22:47:00.459Z,151.30
2017-12-13T22:49:28.008Z,157.83
2017-12-13T22:51:55.586Z,132.77
2017-12-13T22:54:23.154Z,146.27
2017-12-13T22:56:50.733Z,84.10
2017-12-13T22:59:18.256Z,45.73
2017-12-13T23:01:45.874Z,38.90
2017-12-13T23:04:13.461Z,24.17
2017-12-13T23:06:41.011Z,22.40
2017-12-13T23:09:08.620Z,18.50
2017-12-13T23:11:36.150Z,18.80
2017-12-13T23:14:03.763Z,17.13
2017-12-13T23:16:31.309Z,16.77
2017-12-13T23:18:58.866Z,15.80
2017-12-13T23:21:26.478Z,15.93
2017-12-13T23:24:08.838Z,18.10
2017-12-13T23:26:36.466Z,16.00
2017-12-13T23:29:04.373Z,15.70
2017-12-13T23:31:31.956Z,13.80
2017-12-13T23:33:59.496Z,14.33
2017-12-13T23:36:27.075Z,14.90
2017-12-13T23:39:16.260Z,23.63
2017-12-13T23:41:43.913Z,14.10
2017-12-13T23:44:11.491Z,22.80
2017-12-13T23:46:39.044Z,13.40
2017-12-13T23:49:06.576Z,16.10
2017-12-13T23:51:34.168Z,20.07
2017-12-13T23:54:01.755Z,24.37
2017-12-13T23:56:29.532Z,20.93
2017-12-13T23:58:58.701Z,21.80
